Terminal Aerodrome Forecast
Issued by NWS

Home | Current Version | Previous Version | Graphics & Text | Print | Product List | Glossary On
Versions: 1 2 3 4 5 6 7 8 9 10 11 12 13 14 15 16 17 18 19 20 21 22
000
FTUS43 KGRB 191136
TAFMTW
TAF
KMTW 191136Z 1912/2012 28006KT P6SM SCT006 SCT120
      TEMPO 1912/1913 3SM BR BKN006
     FM191500 27008KT P6SM FEW050 SCT120
     FM200200 23004KT P6SM FEW120
     FM200900 23004KT 3SM BR SKC=

USA.gov is the U.S. government's official web portal to all federal, state and local government web resources and services.